Time;durP1;ratioP1;P1;durP2;ratioP2;P2;SDS_P1;SDS_P2;PMS_P1;PMS_P2;Temp;Humidity;BMP_temperature;BMP_pressure;BME280_temperature;BME280_humidity;BME280_pressure;Samples;Min_cycle;Max_cycle;Signal;HPM_P1;HPM_P2
2022/08/03 00:01:16;;;;;;;2.13;1.93;;;;;;;25.02;45.63;100319.38;5083358;28;20414;-75
2022/08/03 00:03:41;;;;;;;3.30;1.98;;;;;;;25.01;45.86;100328.81;5093921;28;20471;-75
2022/08/03 00:06:07;;;;;;;1.67;1.57;;;;;;;24.95;46.74;100322.69;5092499;28;20398;-75
2022/08/03 00:08:32;;;;;;;5.03;2.03;;;;;;;24.89;47.38;100321.31;5095284;28;20940;-75
2022/08/03 00:10:58;;;;;;;2.70;1.80;;;;;;;24.93;47.30;100321.44;5087474;28;20470;-75
2022/08/03 00:13:24;;;;;;;3.65;1.77;;;;;;;24.97;46.76;100323.16;5091986;28;20456;-75
2022/08/03 00:15:49;;;;;;;2.80;1.67;;;;;;;24.90;46.18;100328.44;5071634;28;20413;-75
2022/08/03 00:18:15;;;;;;;2.10;1.90;;;;;;;24.78;45.84;100326.44;5094053;28;20755;-75
2022/08/03 00:20:41;;;;;;;3.05;1.52;;;;;;;24.64;45.96;100325.13;5087913;28;20402;-75
2022/08/03 00:23:06;;;;;;;2.40;1.85;;;;;;;24.48;46.36;100315.84;5072624;28;20415;-75
2022/08/03 00:25:34;;;;;;;3.60;2.00;;;;;;;24.47;46.67;100326.09;5077453;28;20423;-75
2022/08/03 00:28:00;;;;;;;3.47;2.00;;;;;;;24.51;46.59;100317.91;5083187;28;20414;-75
2022/08/03 00:30:25;;;;;;;3.50;2.10;;;;;;;24.47;46.67;100323.34;5081721;28;20402;-75
2022/08/03 00:32:50;;;;;;;1.43;1.33;;;;;;;24.47;47.09;100317.00;5093178;28;20429;-75
2022/08/03 00:35:16;;;;;;;2.03;1.90;;;;;;;24.44;47.71;100317.66;5084443;28;20494;-75
2022/08/03 00:37:41;;;;;;;2.23;1.43;;;;;;;24.42;48.10;100315.25;5091239;28;20761;-77
2022/08/03 00:40:12;;;;;;;3.70;2.10;;;;;;;24.46;47.62;100316.19;5091820;28;20768;-77
2022/08/03 00:42:47;;;;;;;1.93;1.70;;;;;;;24.56;47.95;100310.22;5081787;28;20856;-75
2022/08/03 00:45:13;;;;;;;2.40;1.60;;;;;;;24.64;48.24;100305.72;5111942;27;20809;-75
2022/08/03 00:47:38;;;;;;;2.63;1.77;;;;;;;24.68;47.27;100312.22;5093439;28;20404;-74
2022/08/03 00:50:04;;;;;;;3.53;2.23;;;;;;;24.63;47.49;100304.91;5093120;28;20441;-74
2022/08/03 00:52:29;;;;;;;4.23;1.90;;;;;;;24.56;47.45;100310.22;5089441;28;20406;-75
2022/08/03 00:54:55;;;;;;;2.00;1.90;;;;;;;24.43;47.71;100311.34;5089881;28;20870;-75
2022/08/03 00:57:20;;;;;;;4.63;2.20;;;;;;;24.32;47.73;100312.09;5078688;28;20407;-74
2022/08/03 00:59:45;;;;;;;1.83;1.73;;;;;;;24.19;48.28;100309.28;5084404;28;20401;-75
2022/08/03 01:02:10;;;;;;;6.07;1.83;;;;;;;24.08;48.75;100304.44;5089801;28;20806;-75
2022/08/03 01:04:36;;;;;;;2.17;2.00;;;;;;;24.10;48.81;100299.38;5081306;28;20450;-75
2022/08/03 01:07:20;;;;;;;3.00;1.97;;;;;;;24.15;48.85;100299.19;5092975;28;20462;-74
2022/08/03 01:10:05;;;;;;;2.05;1.70;;;;;;;24.23;49.05;100296.38;5092629;28;20418;-74
2022/08/03 01:12:38;;;;;;;3.50;1.73;;;;;;;24.27;49.83;100293.72;5088996;28;20490;-74
2022/08/03 01:15:23;;;;;;;3.60;1.52;;;;;;;24.21;50.46;100290.34;5092741;28;20433;-74
2022/08/03 01:18:02;;;;;;;2.30;2.10;;;;;;;24.20;50.17;100287.94;5102418;28;20419;-75
2022/08/03 01:20:35;;;;;;;4.18;1.90;;;;;;;24.15;50.12;100282.59;5090374;28;20391;-74
2022/08/03 01:23:21;;;;;;;3.35;2.25;;;;;;;24.15;50.36;100282.59;5088666;28;20413;-74
2022/08/03 01:25:56;;;;;;;4.05;1.98;;;;;;;24.22;50.99;100278.13;5078480;28;20388;-74
2022/08/03 01:28:46;;;;;;;2.30;2.10;;;;;;;24.23;50.69;100288.06;5074550;28;20401;-74
2022/08/03 01:31:17;;;;;;;2.22;1.90;;;;;;;24.20;50.66;100280.41;5083505;28;20402;-74
2022/08/03 01:33:48;;;;;;;1.90;1.80;;;;;;;24.21;50.13;100272.91;5082942;28;20419;-74
2022/08/03 01:36:18;;;;;;;4.50;2.60;;;;;;;24.18;49.91;100279.94;5061360;28;20414;-74
2022/08/03 01:38:49;;;;;;;3.85;1.80;;;;;;;24.15;49.40;100286.16;5063115;28;20395;-74
2022/08/03 01:41:20;;;;;;;1.83;1.80;;;;;;;24.14;49.61;100280.97;5077080;28;20868;-75
2022/08/03 01:43:48;;;;;;;6.38;2.03;;;;;;;24.10;49.17;100280.00;5086747;28;20414;-75
2022/08/03 01:46:15;;;;;;;2.90;2.17;;;;;;;24.04;49.02;100281.38;5091482;28;20900;-74
2022/08/03 01:48:43;;;;;;;5.30;1.98;;;;;;;23.95;48.95;100273.13;5089542;28;20402;-74
2022/08/03 01:51:09;;;;;;;3.70;2.33;;;;;;;23.90;49.15;100270.56;5092081;28;20438;-75
2022/08/03 01:53:36;;;;;;;2.97;2.00;;;;;;;23.75;49.47;100276.69;5078534;28;20740;-75
2022/08/03 01:56:04;;;;;;;2.53;2.10;;;;;;;23.65;49.48;100275.13;5091731;28;20404;-75
2022/08/03 01:58:32;;;;;;;2.10;2.00;;;;;;;23.60;49.59;100271.78;5091939;28;20884;-74
2022/08/03 02:00:59;;;;;;;4.10;2.10;;;;;;;23.48;49.70;100272.47;5081506;28;20772;-74
2022/08/03 02:03:27;;;;;;;2.30;2.10;;;;;;;23.42;49.99;100265.53;5090774;28;20508;-74
2022/08/03 02:05:54;;;;;;;3.57;1.73;;;;;;;23.41;50.08;100271.41;5091169;28;20790;-74
2022/08/03 02:08:22;;;;;;;3.70;1.70;;;;;;;23.40;50.73;100272.53;5091094;28;20799;-74
2022/08/03 02:10:49;;;;;;;2.10;2.00;;;;;;;23.35;50.82;100272.72;5084076;28;20398;-74
2022/08/03 02:13:18;;;;;;;3.22;1.90;;;;;;;23.35;50.98;100267.97;5084870;28;20407;-74
2022/08/03 02:15:44;;;;;;;2.83;2.20;;;;;;;23.38;50.98;100266.53;5090090;28;20409;-74
2022/08/03 02:18:10;;;;;;;2.38;2.10;;;;;;;23.38;51.24;100272.84;5086454;28;20401;-74
2022/08/03 02:20:39;;;;;;;3.50;1.83;;;;;;;23.37;51.24;100273.19;5078283;28;21021;-74
2022/08/03 02:23:08;;;;;;;3.17;2.15;;;;;;;23.41;51.60;100274.19;5085836;28;20418;-74
2022/08/03 02:25:40;;;;;;;4.10;2.38;;;;;;;23.41;51.83;100275.00;5088356;28;20441;-74
2022/08/03 02:28:10;;;;;;;1.55;1.55;;;;;;;23.43;52.65;100277.41;5088133;28;20402;-74
2022/08/03 02:30:38;;;;;;;5.55;2.17;;;;;;;23.43;52.85;100277.41;5086965;28;20411;-75
2022/08/03 02:33:06;;;;;;;5.80;2.00;;;;;;;23.42;52.61;100268.31;5083139;28;20447;-74
2022/08/03 02:35:32;;;;;;;2.23;2.00;;;;;;;23.41;52.68;100279.72;5088941;28;20401;-75
2022/08/03 02:38:03;;;;;;;3.13;2.10;;;;;;;23.41;52.61;100269.47;5091217;28;20406;-74
2022/08/03 02:40:32;;;;;;;3.00;1.92;;;;;;;23.45;52.63;100277.88;5088014;28;20402;-74
2022/08/03 02:43:01;;;;;;;3.08;1.95;;;;;;;23.44;52.32;100279.84;5087134;28;20425;-74
2022/08/03 02:45:28;;;;;;;3.75;1.92;;;;;;;23.37;52.55;100275.94;5089358;28;20449;-74
2022/08/03 02:47:57;;;;;;;2.35;2.17;;;;;;;23.30;52.63;100276.47;5087482;28;20400;-74
2022/08/03 02:50:24;;;;;;;4.53;2.25;;;;;;;23.26;52.83;100272.75;5080853;28;20939;-74
2022/08/03 02:52:51;;;;;;;2.37;2.17;;;;;;;23.24;53.36;100269.53;5087652;28;20425;-74
2022/08/03 02:55:19;;;;;;;2.03;1.92;;;;;;;23.25;53.21;100262.84;5086901;28;20947;-74
2022/08/03 02:57:46;;;;;;;1.80;1.70;;;;;;;23.22;53.12;100269.84;5090868;28;20421;-74
2022/08/03 03:00:12;;;;;;;2.47;2.00;;;;;;;23.24;52.96;100267.56;5083150;28;20903;-75
2022/08/03 03:02:39;;;;;;;7.37;2.13;;;;;;;23.24;52.99;100266.75;5088246;28;20406;-74
2022/08/03 03:05:06;;;;;;;3.57;2.20;;;;;;;23.21;52.69;100265.47;5085023;28;20406;-74
2022/08/03 03:07:33;;;;;;;2.88;2.13;;;;;;;23.16;52.78;100260.13;5088528;28;20472;-75
2022/08/03 03:10:00;;;;;;;2.20;2.10;;;;;;;23.09;52.98;100265.34;5089816;28;20689;-74
2022/08/03 03:12:27;;;;;;;4.30;2.37;;;;;;;23.04;53.13;100267.50;5089933;28;20506;-75
2022/08/03 03:14:52;;;;;;;3.95;2.20;;;;;;;22.99;53.27;100260.19;5090612;28;20406;-74
2022/08/03 03:17:19;;;;;;;2.87;1.83;;;;;;;23.01;53.29;100260.69;5080428;28;20768;-75
2022/08/03 03:19:46;;;;;;;6.05;2.20;;;;;;;22.98;53.04;100258.59;5080323;28;20389;-75
2022/08/03 03:22:13;;;;;;;4.10;1.98;;;;;;;22.98;52.91;100255.03;5082314;28;20401;-75
2022/08/03 03:24:41;;;;;;;2.97;1.90;;;;;;;22.94;52.87;100260.41;5087240;28;20417;-74
2022/08/03 03:27:07;;;;;;;3.80;1.65;;;;;;;22.88;52.66;100258.16;5088981;28;20410;-74
2022/08/03 03:29:33;;;;;;;2.58;2.13;;;;;;;22.78;52.70;100253.81;5084381;28;20413;-74
2022/08/03 03:32:00;;;;;;;2.10;2.00;;;;;;;22.69;52.68;100244.72;5087907;28;20519;-75
2022/08/03 03:34:28;;;;;;;2.70;1.90;;;;;;;22.63;52.88;100246.84;5080763;28;20911;-74
2022/08/03 03:36:53;;;;;;;5.32;2.17;;;;;;;22.60;52.70;100247.50;5084651;28;20434;-74
2022/08/03 03:39:18;;;;;;;2.20;2.10;;;;;;;22.57;52.70;100259.19;5086614;28;20448;-75
2022/08/03 03:41:44;;;;;;;2.70;2.00;;;;;;;22.54;52.76;100254.34;5088153;28;20841;-75
2022/08/03 03:44:10;;;;;;;2.13;2.03;;;;;;;22.51;52.84;100257.75;5090452;28;20405;-74
2022/08/03 03:46:37;;;;;;;4.47;2.10;;;;;;;22.54;52.75;100256.28;5087915;28;20432;-74
2022/08/03 03:49:05;;;;;;;5.37;2.30;;;;;;;22.56;52.82;100265.03;5090394;28;20424;-74
2022/08/03 03:51:31;;;;;;;3.60;2.65;;;;;;;22.50;53.03;100269.94;5080398;28;20488;-74
2022/08/03 03:53:57;;;;;;;4.87;2.20;;;;;;;22.47;53.19;100255.97;5088255;28;20809;-74
2022/08/03 03:56:23;;;;;;;2.70;2.08;;;;;;;22.37;53.50;100253.56;5069583;28;20417;-74
2022/08/03 03:58:49;;;;;;;7.30;2.42;;;;;;;22.36;53.57;100257.47;5075741;28;20786;-74
2022/08/03 04:01:14;;;;;;;7.03;3.00;;;;;;;22.33;53.73;100253.41;5088080;28;20417;-75
2022/08/03 04:03:40;;;;;;;6.05;4.90;;;;;;;22.34;54.03;100256.97;5077172;28;20463;-74
2022/08/03 04:11:51;;;;;;;7.07;3.20;;;;;;;22.41;53.78;100269.16;5081857;28;20496;-74
2022/08/03 04:14:32;;;;;;;3.97;2.35;;;;;;;22.42;53.83;100265.25;5070292;28;20416;-74
2022/08/03 04:17:02;;;;;;;3.50;2.58;;;;;;;22.43;54.03;100272.38;5085441;28;20421;-74
2022/08/03 04:19:35;;;;;;;3.90;2.60;;;;;;;22.45;54.01;100263.78;5059036;28;20883;-74
2022/08/03 04:22:06;;;;;;;3.13;2.70;;;;;;;22.46;54.09;100260.69;5084723;28;20452;-74
2022/08/03 04:24:37;;;;;;;3.97;2.72;;;;;;;22.46;54.09;100263.44;5091361;28;20439;-74
2022/08/03 04:27:08;;;;;;;3.73;2.30;;;;;;;22.49;54.32;100260.03;5087302;28;20430;-75
2022/08/03 04:29:36;;;;;;;8.88;2.63;;;;;;;22.52;54.10;100267.69;5113351;27;20910;-75
2022/08/03 04:32:05;;;;;;;5.55;2.80;;;;;;;22.55;54.05;100268.97;5090301;28;20516;-75
2022/08/03 04:34:31;;;;;;;2.85;2.53;;;;;;;22.55;54.25;100261.50;5078620;28;20885;-74
2022/08/03 04:36:59;;;;;;;5.75;2.53;;;;;;;22.53;54.38;100269.28;5088370;28;20477;-74
2022/08/03 04:39:28;;;;;;;5.82;2.50;;;;;;;22.54;54.48;100270.09;5092536;28;20919;-74
2022/08/03 04:41:57;;;;;;;6.37;2.67;;;;;;;22.60;54.38;100274.28;5088847;28;20402;-74
2022/08/03 04:44:24;;;;;;;2.55;2.35;;;;;;;22.63;54.52;100276.41;5094401;28;20913;-75
2022/08/03 04:46:51;;;;;;;6.40;3.05;;;;;;;22.62;54.64;100281.09;5092304;28;20408;-75
2022/08/03 04:49:18;;;;;;;6.07;2.85;;;;;;;22.59;54.28;100276.25;5091638;28;20858;-74
2022/08/03 04:51:44;;;;;;;3.30;2.38;;;;;;;22.59;54.28;100281.75;5077918;28;20893;-74
2022/08/03 04:54:13;;;;;;;6.00;2.60;;;;;;;22.57;54.29;100284.06;5081797;28;20411;-74
2022/08/03 04:56:40;;;;;;;5.10;2.30;;;;;;;22.53;54.53;100283.09;5090241;28;20745;-75
2022/08/03 04:59:05;;;;;;;2.28;2.17;;;;;;;22.47;54.94;100273.34;5078288;28;20412;-74
2022/08/03 05:01:31;;;;;;;4.53;2.77;;;;;;;22.44;55.03;100278.72;5079732;28;20399;-75
2022/08/03 05:03:56;;;;;;;3.30;2.63;;;;;;;22.45;55.26;100283.94;5085439;28;20922;-74
2022/08/03 05:06:21;;;;;;;4.23;2.77;;;;;;;22.49;55.38;100284.88;5086203;28;20476;-75
2022/08/03 05:08:46;;;;;;;4.93;3.00;;;;;;;22.48;55.67;100283.28;5088338;28;20392;-74
2022/08/03 05:11:12;;;;;;;5.07;2.70;;;;;;;22.51;55.88;100287.31;5076972;28;20411;-75
2022/08/03 05:13:37;;;;;;;3.17;2.97;;;;;;;22.51;55.94;100293.66;5086555;28;20390;-74
2022/08/03 05:16:02;;;;;;;3.80;3.53;;;;;;;22.42;56.53;100294.81;5074084;28;20415;-74
2022/08/03 05:18:28;;;;;;;4.28;3.45;;;;;;;22.31;57.04;100290.75;5069012;28;20413;-74
2022/08/03 05:20:53;;;;;;;2.80;2.60;;;;;;;22.29;57.60;100290.28;5071184;28;20402;-74
2022/08/03 05:23:18;;;;;;;4.00;2.73;;;;;;;22.22;58.76;100297.13;5082858;28;20469;-74
2022/08/03 05:25:44;;;;;;;3.03;2.70;;;;;;;22.31;58.95;100297.09;5090889;28;20417;-74
2022/08/03 05:28:09;;;;;;;3.23;2.73;;;;;;;22.30;59.73;100294.66;5082912;28;20885;-74
2022/08/03 05:30:35;;;;;;;4.50;2.97;;;;;;;22.34;59.44;100301.16;5070933;28;20905;-75
2022/08/03 05:33:02;;;;;;;4.72;2.97;;;;;;;22.39;59.76;100301.81;5085403;28;20421;-75
2022/08/03 05:35:28;;;;;;;4.22;2.50;;;;;;;22.39;59.81;100307.34;5079572;28;20471;-74
2022/08/03 05:37:53;;;;;;;3.45;3.15;;;;;;;22.40;59.96;100297.91;5086853;28;20403;-74
2022/08/03 05:40:19;;;;;;;3.30;3.00;;;;;;;22.37;60.33;100303.25;5083531;28;20497;-74
2022/08/03 05:42:44;;;;;;;3.20;3.00;;;;;;;22.36;60.48;100310.72;5082957;28;20491;-74
2022/08/03 05:45:17;;;;;;;4.10;2.73;;;;;;;22.35;60.48;100309.13;5087473;28;20402;-74
2022/08/03 05:47:45;;;;;;;3.97;3.35;;;;;;;22.38;60.39;100305.69;5080756;28;20406;-73
2022/08/03 05:50:11;;;;;;;3.22;3.05;;;;;;;22.36;60.35;100307.19;5085697;28;20445;-75
2022/08/03 05:52:38;;;;;;;2.90;2.70;;;;;;;22.35;60.49;100308.31;5086089;28;20403;-76
2022/08/03 05:55:08;;;;;;;4.82;2.75;;;;;;;22.43;60.05;100300.00;5074469;28;20418;-79
2022/08/03 05:57:34;;;;;;;6.07;2.80;;;;;;;22.47;59.82;100300.16;5087417;28;20394;-77
2022/08/03 06:00:01;;;;;;;6.55;2.70;;;;;;;22.54;59.44;100297.72;5084476;28;20406;-77
2022/08/03 06:02:26;;;;;;;5.03;3.05;;;;;;;22.58;58.69;100302.25;5075424;28;20432;-77
2022/08/03 06:04:52;;;;;;;3.50;3.07;;;;;;;22.63;58.60;100306.78;5074135;28;20400;-75
2022/08/03 06:07:17;;;;;;;2.80;2.70;;;;;;;22.68;57.99;100306.66;5075118;28;20400;-75
2022/08/03 06:09:42;;;;;;;3.10;2.73;;;;;;;22.64;56.84;100305.66;5087777;28;20402;-77
2022/08/03 06:12:08;;;;;;;3.27;3.00;;;;;;;22.70;56.56;100307.13;5073451;28;20409;-77
2022/08/03 06:14:33;;;;;;;4.15;3.15;;;;;;;22.79;56.45;100310.66;5062830;28;20385;-77
2022/08/03 06:16:58;;;;;;;5.88;3.10;;;;;;;22.87;56.55;100312.59;5062181;28;20411;-79
2022/08/03 06:19:24;;;;;;;5.50;2.57;;;;;;;22.92;55.89;100309.66;5072620;28;20390;-79
2022/08/03 06:21:50;;;;;;;2.70;2.50;;;;;;;22.92;55.83;100315.19;5089366;28;20382;-78
2022/08/03 06:24:15;;;;;;;3.10;2.80;;;;;;;22.98;55.61;100316.63;5062128;28;20420;-77
2022/08/03 06:26:44;;;;;;;4.40;3.10;;;;;;;22.97;55.66;100309.47;5065110;28;20457;-76
2022/08/03 06:29:09;;;;;;;3.03;2.72;;;;;;;22.99;55.50;100309.94;5079440;28;20408;-76
2022/08/03 06:31:34;;;;;;;6.25;2.95;;;;;;;22.98;55.04;100305.59;5074966;28;20760;-77
2022/08/03 06:34:04;;;;;;;4.82;3.00;;;;;;;23.00;55.37;100313.53;5074557;28;20470;-76
2022/08/03 06:36:30;;;;;;;5.63;2.67;;;;;;;23.09;55.19;100312.34;5085942;28;20388;-76
2022/08/03 06:38:59;;;;;;;3.00;2.40;;;;;;;23.17;54.89;100307.94;5077799;28;20403;-78
2022/08/03 06:41:25;;;;;;;6.57;2.70;;;;;;;23.21;54.83;100308.91;5070243;28;20411;-77
2022/08/03 06:43:51;;;;;;;6.47;2.50;;;;;;;23.28;54.64;100312.75;5085925;28;20414;-77
2022/08/03 06:46:16;;;;;;;5.03;2.60;;;;;;;23.35;54.46;100312.22;5071577;28;20419;-77
2022/08/03 06:48:41;;;;;;;3.07;2.60;;;;;;;23.40;54.07;100311.22;5082065;28;20535;-77
2022/08/03 06:51:07;;;;;;;4.00;2.50;;;;;;;23.45;53.93;100319.34;5079096;28;20395;-77
2022/08/03 06:53:32;;;;;;;2.90;2.37;;;;;;;23.46;54.01;100324.56;5077679;28;20413;-80
2022/08/03 06:55:57;;;;;;;3.78;2.50;;;;;;;23.47;53.96;100315.13;5067209;28;21079;-78
2022/08/03 06:58:23;;;;;;;44.13;6.95;;;;;;;23.55;53.72;100321.75;5116558;27;20497;-76
2022/08/03 07:00:48;;;;;;;7.57;3.30;;;;;;;23.62;53.53;100313.72;5086993;28;20398;-76
2022/08/03 07:03:13;;;;;;;6.43;2.67;;;;;;;23.69;53.38;100311.25;5071360;28;20419;-75
2022/08/03 07:05:40;;;;;;;5.20;2.67;;;;;;;23.76;52.92;100312.34;5054974;28;20501;-73
2022/08/03 07:08:06;;;;;;;4.82;2.60;;;;;;;23.84;53.04;100312.63;5066651;28;20437;-75
2022/08/03 07:10:31;;;;;;;3.47;2.50;;;;;;;23.90;52.73;100316.81;5064156;28;20410;-75
